Flight Track Log - Related Links

Times and Time Zones

All times are in EDT time to prevent confusion due to time zone crossing. See the DLH507 flight status page for this flight to view local times or setup timezone preferences in your user account.

Time Position Orientation Groundspeed Altitude Reporting Facility
EDT Latitude Longitude Course Direction KTS MPH feet Rate Location/Type
Wed 06:12:02 PM -23.4250 -46.4480 73° East 190 219 2,500  Level FlightAware ADS-B
Wed 06:12:22 PM -23.4200 -46.4300 73° East 190 219 3,200 1,629 Climbing FlightAware ADS-B
Wed 06:13:12 PM -23.4080 -46.3890 72° East 206 237 4,400 988 Climbing FlightAware ADS-B
Wed 06:13:47 PM -23.3980 -46.3570 71° East 212 244 4,600 1,200 Climbing FlightAware ADS-B
Wed 06:14:12 PM -23.3850 -46.3150 71° East 265 305 5,600 2,133 Climbing FlightAware ADS-B
Wed 06:14:32 PM -23.3760 -46.2850 72° East 282 325 6,200 1,527 Climbing FlightAware ADS-B
Wed 06:15:07 PM -23.3570 -46.2410 65° Northeast 312 359 7,000 1,320 Climbing FlightAware ADS-B
Wed 06:15:22 PM -23.3440 -46.2280 43° Northeast 323 372 7,300 2,160 Climbing FlightAware ADS-B
Wed 06:15:32 PM -23.3270 -46.2190 26° Northeast 324 373 7,900 3,120 Climbing FlightAware ADS-B
Wed 06:15:47 PM -23.3010 -46.2120 14° North 324 373 8,600 2,700 Climbing FlightAware ADS-B
Wed 06:16:32 PM -23.2320 -46.2050 North 341 392 10,600 2,025 Climbing FlightAware ADS-B
Wed 06:17:07 PM -23.1740 -46.1930 11° North 366 421 11,300 1,125 Climbing FlightAware ADS-B
Wed 06:17:52 PM -23.0980 -46.1720 14° North 406 467 12,100 1,267 Climbing FlightAware ADS-B
Wed 06:18:37 PM -23.0120 -46.1400 19° North 444 511 13,200 1,694 Climbing FlightAware ADS-B
Wed 06:19:17 PM -22.9290 -46.1080 20° North 456 525 14,500 1,976 Climbing FlightAware ADS-B
Wed 06:20:02 PM -22.8390 -46.0740 19° North 462 532 16,000 1,906 Climbing FlightAware ADS-B
Wed 06:20:42 PM -22.7580 -46.0430 19° North 463 533 17,200 1,800 Climbing FlightAware ADS-B
Wed 06:21:22 PM -22.6750 -46.0110 20° North 478 550 18,400 1,650 Climbing FlightAware ADS-B
Wed 06:22:02 PM -22.5900 -45.9790 19° North 479 551 19,400 1,553 Climbing FlightAware ADS-B
Wed 06:22:47 PM -22.4940 -45.9420 20° North 495 570 20,600 1,482 Climbing FlightAware ADS-B
Wed 06:23:27 PM -22.4070 -45.9090 19° North 496 571 21,500 1,412 Climbing FlightAware ADS-B
Wed 06:24:12 PM -22.3040 -45.8700 19° North 514 592 22,600 1,412 Climbing FlightAware ADS-B
Wed 06:24:52 PM -22.2160 -45.8360 20° North 509 586 23,500 1,553 Climbing FlightAware ADS-B
Wed 06:25:37 PM -22.1130 -45.7970 19° North 511 588 24,800 1,650 Climbing FlightAware ADS-B
Wed 06:26:12 PM -22.0340 -45.7670 19° North 514 592 25,700 1,360 Climbing FlightAware ADS-B
Wed 06:26:52 PM -21.9490 -45.7350 19° North 524 603 26,500 1,500 Climbing FlightAware ADS-B
Wed 06:27:32 PM -21.8540 -45.6990 19° North 514 592 27,700 1,765 Climbing FlightAware ADS-B
Wed 06:28:17 PM -21.7510 -45.6600 19° North 515 593 29,000 1,624 Climbing FlightAware ADS-B
Wed 06:28:57 PM -21.6580 -45.6250 19° North 513 590 30,000 1,275 Climbing FlightAware ADS-B
Wed 06:29:37 PM -21.5700 -45.5920 19° North 515 593 30,700 706 Climbing FlightAware ADS-B
Wed 06:30:22 PM -21.4760 -45.5490 23° Northeast 513 590 31,000 212 Climbing FlightAware ADS-B
Wed 06:31:02 PM -21.3930 -45.4950 31° Northeast 512 589 31,000  Level FlightAware ADS-B
Wed 06:31:47 PM -21.3040 -45.4330 33° Northeast 509 586 31,000  Level FlightAware ADS-B
Wed 06:32:27 PM -21.2240 -45.3780 33° Northeast 508 585 31,000  Level FlightAware ADS-B
Wed 06:33:07 PM -21.1460 -45.3240 33° Northeast 507 583 31,000  Level FlightAware ADS-B
Wed 06:33:52 PM -21.0560 -45.2630 32° Northeast 506 582 31,000  Level FlightAware ADS-B
Wed 06:34:32 PM -20.9790 -45.2100 33° Northeast 506 582 31,000  Level FlightAware ADS-B
Wed 06:35:17 PM -20.8880 -45.1490 32° Northeast 505 581 31,000  Level FlightAware ADS-B
Wed 06:35:57 PM -20.8080 -45.0940 33° Northeast 505 581 31,000  Level FlightAware ADS-B
Wed 06:36:37 PM -20.7300 -45.0400 33° Northeast 504 580 31,000  Level FlightAware ADS-B
Wed 06:37:22 PM -20.6410 -44.9800 32° Northeast 504 580 31,000  Level FlightAware ADS-B
Wed 06:38:02 PM -20.5630 -44.9260 33° Northeast 503 579 31,000  Level FlightAware ADS-B
Wed 06:38:47 PM -20.4750 -44.8650 33° Northeast 502 578 31,000  Level FlightAware ADS-B
Wed 06:39:27 PM -20.3970 -44.8120 32° Northeast 503 579 31,000  Level FlightAware ADS-B
Wed 06:40:07 PM -20.3200 -44.7590 33° Northeast 507 583 31,000  Level FlightAware ADS-B
Wed 06:40:52 PM -20.2290 -44.6970 33° Northeast 511 588 31,000  Level FlightAware ADS-B
Wed 06:41:32 PM -20.1490 -44.6430 32° Northeast 515 593 31,000  Level FlightAware ADS-B
Wed 06:42:17 PM -20.0580 -44.5790 33° Northeast 518 596 31,000  Level FlightAware ADS-B
Wed 06:42:57 PM -19.9850 -44.5120 41° Northeast 523 602 31,000  Level FlightAware ADS-B
Wed 06:43:37 PM -19.9180 -44.4380 46° Northeast 524 603 31,000  Level FlightAware ADS-B
Wed 06:44:22 PM -19.8430 -44.3550 46° Northeast 524 603 31,000  Level FlightAware ADS-B
Wed 06:45:02 PM -19.7760 -44.2810 46° Northeast 523 602 31,000  Level FlightAware ADS-B
Wed 06:45:47 PM -19.6980 -44.1970 45° Northeast 522 601 31,000  Level FlightAware ADS-B
Wed 06:46:27 PM -19.6310 -44.1260 45° Northeast 524 603 31,000  Level FlightAware ADS-B
Wed 06:47:07 PM -19.5580 -44.0570 42° Northeast 520 598 31,000  Level FlightAware ADS-B
Wed 06:47:52 PM -19.4610 -44.0070 26° Northeast 520 598 31,000  Level FlightAware ADS-B
Wed 06:48:32 PM -19.3730 -43.9710 21° North 518 596 31,000  Level FlightAware ADS-B
Wed 06:49:12 PM -19.2800 -43.9340 21° North 517 595 31,000  Level FlightAware ADS-B
Wed 06:49:57 PM -19.1790 -43.8930 21° North 518 596 31,000  Level FlightAware ADS-B
Wed 06:50:37 PM -19.0930 -43.8580 21° North 520 598 31,000  Level FlightAware ADS-B
Wed 06:51:22 PM -18.9880 -43.8160 21° North 520 598 31,000  Level FlightAware ADS-B
Wed 06:52:02 PM -18.8990 -43.7790 21° North 520 598 31,000  Level FlightAware ADS-B
Wed 06:52:42 PM -18.8100 -43.7430 21° North 519 597 31,000  Level FlightAware ADS-B
Wed 06:53:27 PM -18.7090 -43.7010 21° North 519 597 31,000  Level FlightAware ADS-B
Wed 06:54:07 PM -18.6190 -43.6650 21° North 519 597 31,000  Level FlightAware ADS-B
Wed 06:54:52 PM -18.5160 -43.6230 21° North 517 595 31,000  Level FlightAware ADS-B
Wed 06:55:32 PM -18.4270 -43.5870 21° North 515 593 31,000  Level FlightAware ADS-B
Wed 06:56:17 PM -18.3350 -43.5500 21° North 514 592 31,000  Level FlightAware ADS-B
Wed 06:56:57 PM -18.2390 -43.5110 21° North 512 589 31,000  Level FlightAware ADS-B
Wed 06:57:37 PM -18.1500 -43.4750 21° North 512 589 31,000  Level FlightAware ADS-B
Wed 06:58:22 PM -18.0500 -43.4350 21° North 512 589 31,000  Level FlightAware ADS-B
Wed 06:59:07 PM -17.9500 -43.3950 21° North 513 590 31,000  Level FlightAware ADS-B
Wed 06:59:47 PM -17.8610 -43.3590 21° North 513 590 31,000  Level FlightAware ADS-B
Wed 07:00:32 PM -17.7610 -43.3190 21° North 512 589 31,000  Level FlightAware ADS-B
Wed 07:01:12 PM -17.6740 -43.2840 21° North 510 587 31,000  Level FlightAware ADS-B
Wed 07:01:52 PM -17.5850 -43.2480 21° North 510 587 31,000  Level FlightAware ADS-B
Wed 07:02:37 PM -17.4850 -43.2080 21° North 509 586 31,000  Level FlightAware ADS-B
Wed 07:03:17 PM -17.3980 -43.1730 21° North 508 585 31,000  Level FlightAware ADS-B
Wed 07:03:52 PM -17.3230 -43.1420 22° Northeast 511 588 31,000  Level FlightAware ADS-B
Wed 07:04:32 PM -17.2340 -43.0980 25° Northeast 513 590 31,000  Level FlightAware ADS-B
Wed 07:05:17 PM -17.1380 -43.0490 26° Northeast 515 593 31,000  Level FlightAware ADS-B
Wed 07:05:57 PM -17.0560 -43.0070 26° Northeast 517 595 31,000  Level FlightAware ADS-B
Wed 07:06:42 PM -16.9530 -42.9540 26° Northeast 521 600 31,000  Level FlightAware ADS-B
Wed 07:07:12 PM -16.8910 -42.9230 26° Northeast 521 600 31,000  Level FlightAware ADS-B
Wed 07:08:07 PM -16.7680 -42.8600 26° Northeast 522 601 31,000  Level FlightAware ADS-B
Wed 07:08:47 PM -16.6810 -42.8160 26° Northeast 523 602 31,000  Level FlightAware ADS-B
Wed 07:09:27 PM -16.5970 -42.7740 26° Northeast 524 603 31,000  Level FlightAware ADS-B
Wed 07:10:07 PM -16.5180 -42.7330 26° Northeast 524 603 31,000  Level FlightAware ADS-B
Wed 07:10:47 PM -16.4440 -42.6960 26° Northeast 524 603 31,000  Level FlightAware ADS-B
Wed 07:11:37 PM -16.3510 -42.6490 26° Northeast 524 603 31,000  Level FlightAware ADS-B
Wed 07:12:17 PM -16.2770 -42.6110 26° Northeast 524 603 31,000  Level FlightAware ADS-B
Wed 07:12:57 PM -16.2030 -42.5730 26° Northeast 524 603 31,000  Level FlightAware ADS-B
Wed 07:13:37 PM -16.1290 -42.5360 26° Northeast 524 603 31,000  Level FlightAware ADS-B
Wed 07:14:17 PM -16.0550 -42.4980 26° Northeast 524 603 31,000  Level FlightAware ADS-B
Wed 07:15:07 PM -15.9620 -42.4510 26° Northeast 524 603 31,000  Level FlightAware ADS-B
Wed 07:15:47 PM -15.8880 -42.4140 26° Northeast 524 603 31,000  Level FlightAware ADS-B
Wed 07:16:27 PM -15.8140 -42.3760 26° Northeast 524 603 31,000  Level FlightAware ADS-B
Wed 07:17:07 PM -15.7400 -42.3380 26° Northeast 524 603 31,000  Level FlightAware ADS-B
Wed 07:17:47 PM -15.6660 -42.3010 26° Northeast 524 603 31,000  Level FlightAware ADS-B
Wed 07:18:27 PM -15.5920 -42.2630 26° Northeast 524 603 31,000  Level FlightAware ADS-B
Wed 07:19:17 PM -15.4990 -42.2160 26° Northeast 524 603 31,000 27 Level FlightAware ADS-B
Wed 07:21:00 PM -15.2920 -42.0900 30° Northeast  Level Estimated
Wed 07:22:00 PM -15.1714 -42.0167 30° Northeast  Level Estimated
Wed 07:23:00 PM -15.0507 -41.9435 30° Northeast  Level Estimated
Wed 07:24:00 PM -14.9301 -41.8703 30° Northeast  Level Estimated
Wed 07:25:00 PM -14.8094 -41.7973 30° Northeast  Level Estimated
Wed 07:26:00 PM -14.6887 -41.7243 30° Northeast  Level Estimated
Wed 07:27:00 PM -14.5679 -41.6514 30° Northeast  Level Estimated
Wed 07:28:00 PM -14.4472 -41.5786 30° Northeast  Level Estimated
Wed 07:29:00 PM -14.3264 -41.5059 30° Northeast  Level Estimated
Wed 07:30:00 PM -14.2056 -41.4332 30° Northeast  Level Estimated
Wed 07:31:00 PM -14.0848 -41.3606 30° Northeast  Level Estimated
Wed 07:32:00 PM -13.9639 -41.2881 30° Northeast  Level Estimated
Wed 07:33:00 PM -13.8431 -41.2157 30° Northeast  Level Estimated
Wed 07:34:00 PM -13.7222 -41.1433 30° Northeast  Level Estimated
Wed 07:35:00 PM -13.6012 -41.0711 30° Northeast  Level Estimated
Wed 07:36:00 PM -13.4803 -40.9989 30° Northeast  Level Estimated
Wed 07:37:00 PM -13.3594 -40.9267 30° Northeast  Level Estimated
Wed 07:38:00 PM -13.2384 -40.8547 30° Northeast  Level Estimated
Wed 07:39:00 PM -13.1174 -40.7827 30° Northeast  Level Estimated
Wed 07:40:00 PM -12.9964 -40.7108 30° Northeast  Level Estimated
Wed 07:41:00 PM -12.8754 -40.6389 30° Northeast  Level Estimated
Wed 07:42:00 PM -12.7543 -40.5672 30° Northeast  Level Estimated
Wed 07:43:00 PM -12.6333 -40.4954 30° Northeast  Level Estimated
Wed 07:44:00 PM -12.5122 -40.4238 30° Northeast  Level Estimated
Wed 07:45:00 PM -12.3911 -40.3522 30° Northeast  Level Estimated
Wed 07:46:00 PM -12.2699 -40.2807 30° Northeast  Level Estimated
Wed 07:47:00 PM -12.1488 -40.2093 30° Northeast  Level Estimated
Wed 07:48:00 PM -12.0276 -40.1379 30° Northeast  Level Estimated
Wed 07:49:00 PM -11.9064 -40.0666 30° Northeast  Level Estimated
Wed 07:50:00 PM -11.7852 -39.9954 30° Northeast  Level Estimated
Wed 07:51:00 PM -11.6640 -39.9242 30° Northeast  Level Estimated
Wed 07:52:00 PM -11.5428 -39.8531 30° Northeast  Level Estimated
Wed 07:53:00 PM -11.4215 -39.7820 30° Northeast  Level Estimated
Wed 07:54:00 PM -11.3003 -39.7110 30° Northeast  Level Estimated
Wed 07:55:00 PM -11.1790 -39.6401 30° Northeast  Level Estimated
Wed 07:56:00 PM -11.0577 -39.5692 30° Northeast  Level Estimated
Wed 07:57:00 PM -10.9363 -39.4984 30° Northeast  Level Estimated
Wed 07:58:00 PM -10.8150 -39.4276 30° Northeast  Level Estimated
Wed 07:59:00 PM -10.6937 -39.3569 30° Northeast  Level Estimated
Wed 08:00:00 PM -10.5723 -39.2863 30° Northeast  Level Estimated
Wed 08:01:00 PM -10.4509 -39.2157 30° Northeast  Level Estimated
Wed 08:02:00 PM -10.3295 -39.1451 30° Northeast  Level Estimated
Wed 08:03:00 PM -10.2081 -39.0746 30° Northeast  Level Estimated
Wed 08:04:00 PM -10.0867 -39.0042 30° Northeast  Level Estimated
Wed 08:05:00 PM -9.9652 -38.9338 30° Northeast  Level Estimated
Wed 08:06:00 PM -9.8438 -38.8635 30° Northeast  Level Estimated
Wed 08:07:00 PM -9.7223 -38.7932 30° Northeast  Level Estimated
Wed 08:08:00 PM -9.6008 -38.7230 30° Northeast  Level Estimated
Wed 08:09:00 PM -9.4793 -38.6529 30° Northeast  Level Estimated
Wed 08:10:00 PM -9.3578 -38.5827 30° Northeast  Level Estimated
Wed 08:11:00 PM -9.2363 -38.5127 30° Northeast  Level Estimated
Wed 08:12:00 PM -9.1147 -38.4426 30° Northeast  Level Estimated
Wed 08:13:00 PM -8.9932 -38.3727 30° Northeast  Level Estimated
Wed 08:14:00 PM -8.8716 -38.3027 30° Northeast  Level Estimated
Wed 08:15:00 PM -8.7500 -38.2328 30° Northeast  Level Estimated
Wed 08:16:00 PM -8.6284 -38.1630 30° Northeast  Level Estimated
Wed 08:17:00 PM -8.5068 -38.0932 30° Northeast  Level Estimated
Wed 08:18:00 PM -8.3852 -38.0235 30° Northeast  Level Estimated
Wed 08:19:00 PM -8.2635 -37.9538 30° Northeast  Level Estimated
Wed 08:20:00 PM -8.1419 -37.8841 30° Northeast  Level Estimated
Wed 08:21:00 PM -8.0203 -37.8145 30° Northeast  Level Estimated
Wed 08:22:00 PM -7.8986 -37.7449 30° Northeast  Level Estimated
Wed 08:23:00 PM -7.7769 -37.6754 30° Northeast  Level Estimated
Wed 08:24:00 PM -7.6552 -37.6059 30° Northeast  Level Estimated
Wed 08:25:00 PM -7.5335 -37.5364 30° Northeast  Level Estimated
Wed 08:26:00 PM -7.4118 -37.4670 29° Northeast  Level Estimated
Wed 08:27:00 PM -7.2901 -37.3976 29° Northeast  Level Estimated
Wed 08:28:00 PM -7.1684 -37.3283 29° Northeast  Level Estimated
Wed 08:29:00 PM -7.0466 -37.2590 29° Northeast  Level Estimated
Wed 08:30:00 PM -6.9249 -37.1897 29° Northeast  Level Estimated
Wed 08:31:00 PM -6.8031 -37.1205 29° Northeast  Level Estimated
Wed 08:31:47 PM -6.0650 -37.7570 29° Northeast 496 571 33,000  Level FlightAware ADS-B
Wed 08:32:00 PM -6.6813 -37.0513 29° Northeast  Level Estimated
Wed 08:32:32 PM -5.9670 -37.7120 25° Northeast 495 570 33,000  Level FlightAware ADS-B
Wed 08:33:27 PM -5.8490 -37.6590 24° Northeast 495 570 33,000  Level FlightAware ADS-B
Wed 08:34:12 PM -5.7540 -37.6160 24° Northeast 495 570 33,000  Level FlightAware ADS-B
Wed 08:34:52 PM -5.6690 -37.5770 25° Northeast 496 571 33,000  Level FlightAware ADS-B
Wed 08:35:32 PM -5.5880 -37.5410 24° Northeast 496 571 33,000  Level FlightAware ADS-B
Wed 08:36:17 PM -5.5010 -37.5020 24° Northeast 495 570 33,000  Level FlightAware ADS-B
Wed 08:36:57 PM -5.4090 -37.4600 24° Northeast 494 568 33,000  Level FlightAware ADS-B
Wed 08:38:02 PM -5.2750 -37.4000 24° Northeast 493 567 33,000  Level FlightAware ADS-B
Wed 08:38:42 PM -5.1890 -37.3590 25° Northeast 493 567 33,000  Level FlightAware ADS-B
Wed 08:39:27 PM -5.1040 -37.3130 28° Northeast 493 567 33,000  Level FlightAware ADS-B
Wed 08:40:02 PM -5.0350 -37.2750 29° Northeast 492 566 33,000  Level FlightAware ADS-B
Wed 08:40:42 PM -4.9510 -37.2280 29° Northeast 491 565 33,000  Level FlightAware ADS-B
Wed 08:41:32 PM -4.8520 -37.1730 29° Northeast 491 565 33,000  Level FlightAware ADS-B
Wed 08:42:12 PM -4.7690 -37.1270 29° Northeast 491 565 33,000  Level FlightAware ADS-B
Wed 08:42:57 PM -4.6820 -37.0790 29° Northeast 490 564 33,000  Level FlightAware ADS-B
Wed 08:43:37 PM -4.6030 -37.0360 28° Northeast 490 564 33,000  Level FlightAware ADS-B
Wed 08:44:17 PM -4.5210 -36.9900 29° Northeast 489 563 33,000  Level FlightAware ADS-B
Wed 08:45:02 PM -4.4330 -36.9410 29° Northeast 489 563 33,000  Level FlightAware ADS-B
Wed 08:45:42 PM -4.3530 -36.8970 29° Northeast 488 562 33,000  Level FlightAware ADS-B
Wed 08:46:22 PM -4.2750 -36.8540 29° Northeast 488 562 33,000  Level FlightAware ADS-B
Wed 08:47:07 PM -4.1840 -36.8040 29° Northeast 489 563 33,000  Level FlightAware ADS-B
Wed 08:47:47 PM -4.1030 -36.7590 29° Northeast 491 565 33,000  Level FlightAware ADS-B
Wed 08:48:32 PM -4.0150 -36.7110 29° Northeast 492 566 33,000  Level FlightAware ADS-B
Wed 08:49:12 PM -3.9360 -36.6670 29° Northeast 492 566 33,000  Level FlightAware ADS-B
Wed 08:49:52 PM -3.8570 -36.6240 29° Northeast 492 566 33,000  Level FlightAware ADS-B
Wed 08:50:37 PM -3.7750 -36.5780 29° Northeast 492 566 33,000  Level FlightAware ADS-B
Wed 08:51:32 PM -3.6560 -36.5130 29° Northeast 490 564 33,000  Level FlightAware ADS-B
Wed 08:52:12 PM -3.5750 -36.4680 29° Northeast 490 564 33,000  Level FlightAware ADS-B
Wed 08:52:52 PM -3.5020 -36.4280 29° Northeast 490 564 33,000  Level FlightAware ADS-B
Wed 08:53:37 PM -3.4200 -36.3820 29° Northeast 490 564 33,000  Level FlightAware ADS-B
Wed 08:54:32 PM -3.2970 -36.3150 29° Northeast 492 566 33,000  Level FlightAware ADS-B
Wed 08:57:00 PM -2.9977 -36.1434 30° Northeast  Level Estimated
Wed 08:58:00 PM -2.8763 -36.0738 30° Northeast  Level Estimated
Wed 08:59:00 PM -2.7550 -36.0043 30° Northeast  Level Estimated
Wed 09:00:00 PM -2.6336 -35.9347 30° Northeast  Level Estimated
Wed 09:00:22 PM -2.5980 -35.9300 30° Northeast 494 568 33,000  Level FlightAware ADS-B
Wed 09:01:07 PM -2.5180 -35.8870 28° Northeast 494 568 33,000  Level FlightAware ADS-B
Wed 09:01:47 PM -2.4490 -35.8510 28° Northeast 494 568 33,000  Level FlightAware ADS-B
Wed 09:02:27 PM -2.3800 -35.8140 28° Northeast 494 568 33,000  Level FlightAware ADS-B
Wed 09:03:07 PM -2.3120 -35.7780 28° Northeast 494 568 33,000  Level FlightAware ADS-B
Wed 09:03:47 PM -2.2430 -35.7410 28° Northeast 494 568 33,000  Level FlightAware ADS-B
Wed 09:04:37 PM -2.1570 -35.6960 28° Northeast 494 568 33,000  Level FlightAware ADS-B
Wed 09:05:17 PM -2.0890 -35.6590 29° Northeast 494 568 33,000  Level FlightAware ADS-B
Wed 09:05:57 PM -2.0200 -35.6230 28° Northeast 494 568 33,000  Level FlightAware ADS-B
Wed 09:06:37 PM -1.9520 -35.5860 29° Northeast 494 568 33,000  Level FlightAware ADS-B
Wed 09:07:17 PM -1.8830 -35.5500 28° Northeast 494 568 33,000  Level FlightAware ADS-B
Wed 09:08:07 PM -1.7970 -35.5040 28° Northeast 494 568 33,000  Level FlightAware ADS-B
Wed 09:08:47 PM -1.7290 -35.4680 28° Northeast 494 568 33,000  Level FlightAware ADS-B
Wed 09:09:27 PM -1.6600 -35.4310 28° Northeast 494 568 33,000  Level FlightAware ADS-B
Wed 09:10:07 PM -1.5910 -35.3950 28° Northeast 494 568 33,000 10 Level FlightAware ADS-B
Wed 09:12:00 PM -1.3754 -35.2716 30° Northeast  Level Estimated
Wed 09:13:00 PM -1.2610 -35.2061 30° Northeast  Level Estimated
Wed 09:14:00 PM -1.1465 -35.1406 30° Northeast  Level Estimated
Wed 09:15:00 PM -1.0321 -35.0751 30° Northeast  Level Estimated
Wed 09:16:00 PM -0.9176 -35.0096 30° Northeast  Level Estimated
Wed 09:17:00 PM -0.8031 -34.9441 30° Northeast  Level Estimated
Wed 09:18:00 PM -0.6887 -34.8786 30° Northeast  Level Estimated
Wed 09:19:00 PM -0.5742 -34.8131 30° Northeast  Level Estimated
Wed 09:20:00 PM -0.4597 -34.7476 30° Northeast  Level Estimated
Wed 09:21:00 PM -0.3384 -34.6782 30° Northeast  Level Estimated
Wed 09:22:00 PM -0.2170 -34.6088 30° Northeast  Level Estimated
Wed 09:23:00 PM -0.0956 -34.5393 30° Northeast  Level Estimated
Wed 09:24:00 PM 0.0257 -34.4699 30° Northeast  Level Estimated
Wed 09:25:00 PM 0.1471 -34.4005 30° Northeast  Level Estimated
Wed 09:26:00 PM 0.2685 -34.3311 30° Northeast  Level Estimated
Wed 09:27:00 PM 0.3898 -34.2616 30° Northeast  Level Estimated
Wed 09:28:00 PM 0.5112 -34.1922 30° Northeast  Level Estimated
Wed 09:29:00 PM 0.6326 -34.1228 30° Northeast  Level Estimated
Wed 09:30:00 PM 0.7540 -34.0533 30° Northeast  Level Estimated
Wed 09:31:00 PM 0.8753 -33.9839 30° Northeast  Level Estimated
Wed 09:32:00 PM 0.9967 -33.9144 30° Northeast  Level Estimated
Wed 09:33:00 PM 1.1181 -33.8450 30° Northeast  Level Estimated
Wed 09:34:00 PM 1.2394 -33.7755 30° Northeast  Level Estimated
Wed 09:35:00 PM 1.3608 -33.7061 30° Northeast  Level Estimated
Wed 09:36:00 PM 1.4821 -33.6366 30° Northeast  Level Estimated
Wed 09:37:00 PM 1.6035 -33.5671 30° Northeast  Level Estimated
Wed 09:38:00 PM 1.7249 -33.4976 30° Northeast  Level Estimated
Wed 09:39:00 PM 1.8462 -33.4281 30° Northeast  Level Estimated
Wed 09:40:00 PM 1.9676 -33.3586 30° Northeast  Level Estimated
Wed 09:41:00 PM 2.0889 -33.2891 30° Northeast  Level Estimated
Wed 09:42:00 PM 2.2103 -33.2196 30° Northeast  Level Estimated
Wed 09:43:00 PM 2.3316 -33.1500 30° Northeast  Level Estimated
Wed 09:44:00 PM 2.4529 -33.0805 30° Northeast  Level Estimated
Wed 09:45:00 PM 2.5743 -33.0109 30° Northeast  Level Estimated
Wed 09:46:00 PM 2.6956 -32.9413 30° Northeast  Level Estimated
Wed 09:47:00 PM 2.8169 -32.8717 30° Northeast  Level Estimated
Wed 09:48:00 PM 2.9383 -32.8022 30° Northeast  Level Estimated
Wed 09:49:00 PM 3.0596 -32.7325 30° Northeast  Level Estimated
Wed 09:50:00 PM 3.1809 -32.6629 30° Northeast  Level Estimated
Wed 09:51:00 PM 3.3022 -32.5933 30° Northeast  Level Estimated
Wed 09:52:00 PM 3.4235 -32.5236 30° Northeast  Level Estimated
Wed 09:53:00 PM 3.5448 -32.4539 30° Northeast  Level Estimated
Wed 09:54:00 PM 3.6661 -32.3842 30° Northeast  Level Estimated
Wed 09:55:00 PM 3.7874 -32.3145 30° Northeast  Level Estimated
Wed 09:56:00 PM 3.9086 -32.2447 30° Northeast  Level Estimated
Wed 09:57:00 PM 4.0299 -32.1750 30° Northeast  Level Estimated
Wed 09:58:00 PM 4.1512 -32.1052 30° Northeast  Level Estimated
Wed 09:59:00 PM 4.2725 -32.0354 30° Northeast  Level Estimated
Wed 10:00:00 PM 4.3937 -31.9656 30° Northeast  Level Estimated
Wed 10:01:00 PM 4.5150 -31.8957 30° Northeast  Level Estimated
Wed 10:02:00 PM 4.6362 -31.8258 30° Northeast  Level Estimated
Wed 10:03:00 PM 4.7575 -31.7559 30° Northeast  Level Estimated
Wed 10:04:00 PM 4.8787 -31.6860 30° Northeast  Level Estimated
Wed 10:05:00 PM 4.9999 -31.6161 30° Northeast  Level Estimated
Wed 10:06:00 PM 5.1211 -31.5461 30° Northeast  Level Estimated
Wed 10:07:00 PM 5.2423 -31.4761 30° Northeast  Level Estimated
Wed 10:08:00 PM 5.3635 -31.4061 30° Northeast  Level Estimated
Wed 10:09:00 PM 5.4847 -31.3360 30° Northeast  Level Estimated
Wed 10:10:00 PM 5.6059 -31.2659 30° Northeast  Level Estimated
Wed 10:11:00 PM 5.7271 -31.1958 30° Northeast  Level Estimated
Wed 10:12:00 PM 5.8482 -31.1257 30° Northeast  Level Estimated
Wed 10:13:00 PM 5.9694 -31.0555 30° Northeast  Level Estimated
Wed 10:14:00 PM 6.0906 -30.9853 30° Northeast  Level Estimated
Wed 10:15:00 PM 6.2117 -30.9151 30° Northeast  Level Estimated
Wed 10:16:00 PM 6.3328 -30.8448 30° Northeast  Level Estimated
Wed 10:17:00 PM 6.4539 -30.7745 30° Northeast  Level Estimated
Wed 10:18:00 PM 6.5751 -30.7042 30° Northeast  Level Estimated
Wed 10:19:00 PM 6.6962 -30.6338 30° Northeast  Level Estimated
Wed 10:20:00 PM 6.8172 -30.5634 30° Northeast  Level Estimated
Wed 10:21:00 PM 6.9383 -30.4930 30° Northeast  Level Estimated
Wed 10:22:00 PM 7.0594 -30.4225 30° Northeast  Level Estimated
Wed 10:23:00 PM 7.1805 -30.3520 30° Northeast  Level Estimated
Wed 10:24:00 PM 7.3015 -30.2815 30° Northeast  Level Estimated
Wed 10:25:00 PM 7.4226 -30.2109 30° Northeast  Level Estimated
Wed 10:26:00 PM 7.5436 -30.1402 30° Northeast  Level Estimated
Wed 10:27:00 PM 7.6646 -30.0696 30° Northeast  Level Estimated
Wed 10:28:00 PM 7.7856 -29.9988 30° Northeast  Level Estimated
Wed 10:29:00 PM 7.9066 -29.9281 30° Northeast  Level Estimated
Wed 10:30:00 PM 8.0276 -29.8573 30° Northeast  Level Estimated
Wed 10:31:00 PM 8.1486 -29.7865 30° Northeast  Level Estimated
Wed 10:32:00 PM 8.2695 -29.7156 30° Northeast  Level Estimated
Wed 10:33:00 PM 8.3905 -29.6447 30° Northeast  Level Estimated
Wed 10:34:00 PM 8.5114 -29.5737 30° Northeast  Level Estimated
Wed 10:35:00 PM 8.6323 -29.5027 30° Northeast  Level Estimated
Wed 10:36:00 PM 8.7532 -29.4317 30° Northeast  Level Estimated
Wed 10:37:00 PM 8.8741 -29.3606 30° Northeast  Level Estimated
Wed 10:38:00 PM 8.9950 -29.2894 30° Northeast  Level Estimated
Wed 10:39:00 PM 9.1159 -29.2182 30° Northeast  Level Estimated
Wed 10:40:00 PM 9.2367 -29.1470 30° Northeast  Level Estimated
Wed 10:41:00 PM 9.3575 -29.0757 30° Northeast  Level Estimated
Wed 10:42:00 PM 9.4784 -29.0044 30° Northeast  Level Estimated
Wed 10:43:00 PM 9.5992 -28.9330 30° Northeast  Level Estimated
Wed 10:44:00 PM 9.7200 -28.8615 30° Northeast  Level Estimated
Wed 10:45:00 PM 9.8408 -28.7901 30° Northeast  Level Estimated
Wed 10:46:00 PM 9.9615 -28.7185 30° Northeast  Level Estimated
Wed 10:47:00 PM 10.0823 -28.6469 30° Northeast  Level Estimated
Wed 10:48:00 PM 10.2030 -28.5753 30° Northeast  Level Estimated
Wed 10:49:00 PM 10.3237 -28.5036 30° Northeast  Level Estimated
Wed 10:50:00 PM 10.4444 -28.4318 30° Northeast  Level Estimated
Wed 10:51:00 PM 10.5651 -28.3600 30° Northeast  Level Estimated
Wed 10:52:00 PM 10.6858 -28.2881 30° Northeast  Level Estimated
Wed 10:53:00 PM 10.8064 -28.2162 30° Northeast  Level Estimated
Wed 10:54:00 PM 10.9271 -28.1442 30° Northeast  Level Estimated
Wed 10:55:00 PM 11.0477 -28.0721 30° Northeast  Level Estimated
Wed 10:56:00 PM 11.1683 -28.0000 30° Northeast  Level Estimated
Wed 10:57:00 PM 11.2889 -27.9279 30° Northeast  Level Estimated
Wed 10:58:00 PM 11.4095 -27.8557 30° Northeast  Level Estimated
Wed 10:59:00 PM 11.5300 -27.7834 30° Northeast  Level Estimated
Wed 11:00:00 PM 11.6505 -27.7110 30° Northeast  Level Estimated
Wed 11:01:00 PM 11.7711 -27.6386 30° Northeast  Level Estimated
Wed 11:02:00 PM 11.8916 -27.5661 30° Northeast  Level Estimated
Wed 11:03:00 PM 12.0120 -27.4936 30° Northeast  Level Estimated
Wed 11:04:00 PM 12.1325 -27.4210 31° Northeast  Level Estimated
Wed 11:05:00 PM 12.2529 -27.3483 31° Northeast  Level Estimated
Wed 11:06:00 PM 12.3734 -27.2756 31° Northeast  Level Estimated
Wed 11:07:00 PM 12.4938 -27.2028 31° Northeast  Level Estimated
Wed 11:08:00 PM 12.6141 -27.1299 31° Northeast  Level Estimated
Wed 11:09:00 PM 12.7345 -27.0570 31° Northeast  Level Estimated
Wed 11:10:00 PM 12.8548 -26.9840 31° Northeast  Level Estimated
Wed 11:11:00 PM 12.9752 -26.9109 31° Northeast  Level Estimated
Wed 11:12:00 PM 13.0955 -26.8377 31° Northeast  Level Estimated
Wed 11:13:00 PM 13.2157 -26.7645 31° Northeast  Level Estimated
Wed 11:14:00 PM 13.3360 -26.6912 31° Northeast  Level Estimated
Wed 11:15:00 PM 13.4562 -26.6179 31° Northeast  Level Estimated
Wed 11:16:00 PM 13.5765 -26.5444 31° Northeast  Level Estimated
Wed 11:17:00 PM 13.6967 -26.4709 31° Northeast  Level Estimated
Wed 11:18:00 PM 13.8168 -26.3973 31° Northeast  Level Estimated
Wed 11:19:00 PM 13.9370 -26.3237 31° Northeast  Level Estimated
Wed 11:20:00 PM 14.0571 -26.2499 31° Northeast  Level Estimated
Wed 11:21:00 PM 14.1772 -26.1761 31° Northeast  Level Estimated
Wed 11:22:00 PM 14.2973 -26.1022 31° Northeast  Level Estimated
Wed 11:23:00 PM 14.4174 -26.0282 31° Northeast  Level Estimated
Wed 11:24:00 PM 14.5374 -25.9541 31° Northeast  Level Estimated
Wed 11:25:00 PM 14.6574 -25.8800 31° Northeast  Level Estimated
Wed 11:26:00 PM 14.7774 -25.8058 31° Northeast  Level Estimated
Wed 11:27:00 PM 14.8974 -25.7315 31° Northeast  Level Estimated
Wed 11:28:00 PM 15.0174 -25.6571 31° Northeast  Level Estimated
Wed 11:29:00 PM 15.1373 -25.5826 31° Northeast  Level Estimated
Wed 11:30:00 PM 15.2572 -25.5081 31° Northeast  Level Estimated
Wed 11:31:00 PM 15.3770 -25.4335 31° Northeast  Level Estimated
Wed 11:32:00 PM 15.4969 -25.3587 31° Northeast  Level Estimated
Wed 11:33:00 PM 15.6167 -25.2839 31° Northeast  Level Estimated
Wed 11:34:00 PM 15.7365 -25.2090 31° Northeast  Level Estimated
Wed 11:35:00 PM 15.8563 -25.1340 31° Northeast  Level Estimated
Wed 11:36:00 PM 15.9760 -25.0590 31° Northeast  Level Estimated
Wed 11:37:00 PM 16.0958 -24.9838 31° Northeast  Level Estimated
Wed 11:38:00 PM 16.2154 -24.9086 31° Northeast  Level Estimated
Wed 11:39:00 PM 16.3351 -24.8332 31° Northeast  Level Estimated
Wed 11:40:00 PM 16.4548 -24.7578 31° Northeast  Level Estimated
Wed 11:41:00 PM 16.5744 -24.6822 31° Northeast  Level Estimated
Wed 11:42:00 PM 16.6940 -24.6066 31° Northeast  Level Estimated
Wed 11:43:00 PM 16.8135 -24.5309 31° Northeast  Level Estimated
Wed 11:44:00 PM 16.9330 -24.4551 31° Northeast  Level Estimated
Wed 11:45:00 PM 17.0525 -24.3792 31° Northeast  Level Estimated
Wed 11:46:00 PM 17.1720 -24.3032 31° Northeast  Level Estimated
Wed 11:47:00 PM 17.2915 -24.2271 31° Northeast  Level Estimated
Wed 11:48:00 PM 17.4109 -24.1508 31° Northeast  Level Estimated
Wed 11:49:00 PM 17.5303 -24.0745 31° Northeast  Level Estimated
Wed 11:50:00 PM 17.6496 -23.9981 31° Northeast  Level Estimated
Wed 11:51:00 PM 17.7690 -23.9216 31° Northeast  Level Estimated
Wed 11:52:00 PM 17.8883 -23.8450 31° Northeast  Level Estimated
Wed 11:53:00 PM 18.0075 -23.7683 31° Northeast  Level Estimated
Wed 11:54:00 PM 18.1268 -23.6915 31° Northeast  Level Estimated
Wed 11:55:00 PM 18.2460 -23.6145 31° Northeast  Level Estimated
Wed 11:56:00 PM 18.3652 -23.5375 32° Northeast  Level Estimated
Wed 11:57:00 PM 18.4843 -23.4604 32° Northeast  Level Estimated
Wed 11:58:00 PM 18.6034 -23.3832 32° Northeast  Level Estimated
Wed 11:59:00 PM 18.7225 -23.3058 32° Northeast  Level Estimated
Thu 12:00:00 AM 18.8416 -23.2283 32° Northeast  Level Estimated
Thu 12:01:00 AM 18.9606 -23.1508 32° Northeast  Level Estimated
Thu 12:02:00 AM 19.0796 -23.0731 32° Northeast  Level Estimated
Thu 12:03:00 AM 19.1985 -22.9953 32° Northeast  Level Estimated
Thu 12:04:00 AM 19.3175 -22.9174 32° Northeast  Level Estimated
Thu 12:05:00 AM 19.4364 -22.8394 32° Northeast  Level Estimated
Thu 12:06:00 AM 19.5552 -22.7612 32° Northeast  Level Estimated
Thu 12:07:00 AM 19.6740 -22.6830 32° Northeast  Level Estimated
Thu 12:08:00 AM 19.7928 -22.6046 32° Northeast  Level Estimated
Thu 12:09:00 AM 19.9116 -22.5262 32° Northeast  Level Estimated
Thu 12:10:00 AM 20.0303 -22.4476 32° Northeast  Level Estimated
Thu 12:11:00 AM 20.1490 -22.3688 32° Northeast  Level Estimated
Thu 12:12:00 AM 20.2677 -22.2900 32° Northeast  Level Estimated
Thu 12:13:00 AM 20.3863 -22.2111 32° Northeast  Level Estimated
Thu 12:14:00 AM 20.5049 -22.1320 32° Northeast  Level Estimated
Thu 12:15:00 AM 20.6234 -22.0528 32° Northeast  Level Estimated
Thu 12:16:00 AM 20.7419 -21.9734 32° Northeast  Level Estimated
Thu 12:17:00 AM 20.8604 -21.8940 32° Northeast  Level Estimated
Thu 12:18:00 AM 20.9788 -21.8144 32° Northeast  Level Estimated
Thu 12:19:00 AM 21.0972 -21.7347 32° Northeast  Level Estimated
Thu 12:20:00 AM 21.2156 -21.6549 32° Northeast  Level Estimated
Thu 12:21:00 AM 21.3339 -21.5749 32° Northeast  Level Estimated
Thu 12:22:00 AM 21.4522 -21.4949 32° Northeast  Level Estimated
Thu 12:23:00 AM 21.5704 -21.4147 32° Northeast  Level Estimated
Thu 12:24:00 AM 21.6886 -21.3343 32° Northeast  Level Estimated
Thu 12:25:00 AM 21.8068 -21.2538 32° Northeast  Level Estimated
Thu 12:26:00 AM 21.9249 -21.1732 32° Northeast  Level Estimated
Thu 12:27:00 AM 22.0430 -21.0925 32° Northeast  Level Estimated
Thu 12:28:00 AM 22.1611 -21.0116 32° Northeast  Level Estimated
Thu 12:29:00 AM 22.2791 -20.9306 32° Northeast  Level Estimated
Thu 12:30:00 AM 22.3971 -20.8494 32° Northeast  Level Estimated
Thu 12:31:00 AM 22.5150 -20.7682 32° Northeast  Level Estimated
Thu 12:32:00 AM 22.6329 -20.6867 33° Northeast  Level Estimated
Thu 12:33:00 AM 22.7507 -20.6052 33° Northeast  Level Estimated
Thu 12:34:00 AM 22.8685 -20.5235 33° Northeast  Level Estimated
Thu 12:35:00 AM 22.9863 -20.4416 33° Northeast  Level Estimated
Thu 12:36:00 AM 23.1040 -20.3596 33° Northeast  Level Estimated
Thu 12:37:00 AM 23.2217 -20.2775 33° Northeast  Level Estimated
Thu 12:37:57 AM 23.9180 -20.2350 33° Northeast 530 610 35,000  Level FlightAware ADS-B
Thu 12:38:00 AM 23.3393 -20.1952 33° Northeast  Level Estimated
Thu 12:38:42 AM 24.0130 -20.1690 32° Northeast 531 611 35,000  Level FlightAware ADS-B
Thu 12:39:22 AM 24.0990 -20.1100 32° Northeast 531 611 35,000  Level FlightAware ADS-B
Thu 12:40:07 AM 24.1860 -20.0500 32° Northeast 531 611 35,000  Level FlightAware ADS-B
Thu 12:40:47 AM 24.2750 -19.9880 32° Northeast 531 611 35,000  Level FlightAware ADS-B
Thu 12:41:32 AM 24.3690 -19.9230 32° Northeast 532 612 35,000  Level FlightAware ADS-B
Thu 12:42:12 AM 24.4520 -19.8650 32° Northeast 533 613 35,000  Level FlightAware ADS-B
Thu 12:42:52 AM 24.5280 -19.8130 32° Northeast 533 613 35,000  Level FlightAware ADS-B
Thu 12:43:47 AM 24.6420 -19.7340 32° Northeast 533 613 35,000  Level FlightAware ADS-B
Thu 12:44:27 AM 24.7130 -19.6850 32° Northeast 533 613 35,000  Level FlightAware ADS-B
Thu 12:45:07 AM 24.7840 -19.6360 32° Northeast 533 613 35,000  Level FlightAware ADS-B
Thu 12:45:57 AM 24.8730 -19.5750 32° Northeast 533 613 35,000  Level FlightAware ADS-B
Thu 12:46:37 AM 25.0020 -19.4820 33° Northeast 537 618 35,000  Level FlightAware ADS-B
Thu 12:47:32 AM 25.1240 -19.3960 33° Northeast 538 619 35,000  Level FlightAware ADS-B
Thu 12:48:12 AM 25.2070 -19.3370 33° Northeast 538 619 35,000  Level FlightAware ADS-B
Thu 12:48:57 AM 25.3030 -19.2690 33° Northeast 539 620 35,000  Level FlightAware ADS-B
Thu 12:49:37 AM 25.3860 -19.2110 32° Northeast 539 620 35,000  Level FlightAware ADS-B
Thu 12:50:22 AM 25.4810 -19.1440 32° Northeast 539 620 35,000  Level FlightAware ADS-B
Thu 12:51:02 AM 25.5640 -19.0840 33° Northeast 534 615 35,000  Level FlightAware ADS-B
Thu 12:51:47 AM 25.6620 -19.0150 32° Northeast 535 616 35,000  Level FlightAware ADS-B
Thu 12:52:27 AM 25.7450 -18.9560 33° Northeast 535 616 35,000  Level FlightAware ADS-B
Thu 12:53:12 AM 25.8400 -18.8880 33° Northeast 535 616 35,000  Level FlightAware ADS-B
Thu 12:53:52 AM 25.9250 -18.8280 32° Northeast 535 616 35,000  Level FlightAware ADS-B
Thu 12:54:32 AM 26.0080 -18.7680 33° Northeast 535 616 35,000  Level FlightAware ADS-B
Thu 12:55:17 AM 26.1040 -18.6990 33° Northeast 536 617 35,000  Level FlightAware ADS-B
Thu 12:55:57 AM 26.1890 -18.6380 33° Northeast 537 618 35,000  Level FlightAware ADS-B
Thu 12:56:42 AM 26.2820 -18.5720 32° Northeast 537 618 35,000  Level FlightAware ADS-B
Thu 12:57:22 AM 26.3650 -18.5110 33° Northeast 537 618 35,000  Level FlightAware ADS-B
Thu 12:58:02 AM 26.4510 -18.4490 33° Northeast 538 619 35,000  Level FlightAware ADS-B
Thu 12:58:42 AM 26.5360 -18.3880 33° Northeast 538 619 35,000  Level FlightAware ADS-B
Thu 12:59:27 AM 26.6330 -18.3180 33° Northeast 538 619 35,000 67 Level FlightAware ADS-B
Thu 01:00:12 AM 26.7290 -18.2480 33° Northeast 536 617 35,100 333 Climbing FlightAware ADS-B
Thu 01:00:57 AM 26.8250 -18.1780 33° Northeast 541 623 35,500 494 Climbing FlightAware ADS-B
Thu 01:01:37 AM 26.9070 -18.1180 33° Northeast 542 624 35,800 400 Climbing FlightAware ADS-B
Thu 01:02:12 AM 26.9830 -18.0630 33° Northeast 539 620 36,000 141 Climbing FlightAware ADS-B
Thu 01:03:02 AM 27.0880 -17.9860 33° Northeast 538 619 36,000  Level FlightAware ADS-B
Thu 01:03:57 AM 27.2030 -17.9010 33° Northeast 537 618 36,000  Level FlightAware ADS-B
Thu 01:04:37 AM 27.2890 -17.8380 33° Northeast 538 619 36,000  Level FlightAware ADS-B
Thu 01:05:22 AM 27.3830 -17.7690 33° Northeast 538 619 36,000  Level FlightAware ADS-B
Thu 01:06:02 AM 27.4670 -17.7070 33° Northeast 538 619 36,000  Level FlightAware ADS-B
Thu 01:07:12 AM 27.6080 -17.6020 33° Northeast 539 620 36,000  Level FlightAware ADS-B
Thu 01:08:22 AM 27.7560 -17.4930 33° Northeast 540 621 36,000  Level FlightAware ADS-B
Thu 01:09:32 AM 27.9030 -17.3830 33° Northeast 541 623 36,000  Level FlightAware ADS-B
Thu 01:10:57 AM 28.0940 -17.2790 26° Northeast 541 623 36,000  Level FlightAware ADS-B
Thu 01:12:07 AM 28.2620 -17.2170 18° North 540 621 36,000  Level FlightAware ADS-B
Thu 01:13:17 AM 28.4280 -17.1560 18° North 539 620 36,000  Level FlightAware ADS-B
Thu 01:14:27 AM 28.5950 -17.0940 18° North 539 620 36,000  Level FlightAware ADS-B
Thu 01:15:22 AM 28.7180 -17.0480 18° North 539 620 36,000  Level FlightAware ADS-B
Thu 01:16:02 AM 28.8310 -17.0060 18° North 540 621 36,000  Level FlightAware ADS-B
Thu 01:16:47 AM 28.9370 -16.9660 18° North 541 623 36,000  Level FlightAware ADS-B
Thu 01:17:27 AM 29.0330 -16.9300 18° North 541 623 36,000  Level FlightAware ADS-B
Thu 01:18:12 AM 29.1370 -16.8910 18° North 542 624 36,000  Level FlightAware ADS-B
Thu 01:18:52 AM 29.2370 -16.8540 18° North 542 624 36,000  Level FlightAware ADS-B
Thu 01:19:32 AM 29.3280 -16.8190 19° North 542 624 36,000  Level FlightAware ADS-B
Thu 01:20:17 AM 29.4380 -16.7780 18° North 543 625 36,000  Level FlightAware ADS-B
Thu 01:20:57 AM 29.5320 -16.7420 18° North 544 626 36,000  Level FlightAware ADS-B
Thu 01:21:37 AM 29.6290 -16.7060 18° North 545 627 36,000  Level FlightAware ADS-B
Thu 01:22:22 AM 29.7340 -16.6660 18° North 545 627 36,000  Level FlightAware ADS-B
Thu 01:23:02 AM 29.8350 -16.6270 19° North 547 629 36,000  Level FlightAware ADS-B
Thu 01:23:37 AM 29.9120 -16.5980 18° North 548 631 36,000  Level FlightAware ADS-B
Thu 01:24:27 AM 30.0320 -16.5520 18° North 548 631 36,000  Level FlightAware ADS-B
Thu 01:25:12 AM 30.1400 -16.5110 18° North 550 633 36,000  Level FlightAware ADS-B
Thu 01:25:52 AM 30.2380 -16.4730 19° North 550 633 36,000  Level FlightAware ADS-B
Thu 01:26:47 AM 30.3760 -16.4200 18° North 550 633 36,000  Level FlightAware ADS-B
Thu 01:27:32 AM 30.4780 -16.3800 19° North 550 633 36,000  Level FlightAware ADS-B
Thu 01:28:12 AM 30.5810 -16.3410 18° North 551 634 36,000  Level FlightAware ADS-B
Thu 01:28:52 AM 30.6760 -16.3040 19° North 551 634 36,000  Level FlightAware ADS-B
Thu 01:29:37 AM 30.7860 -16.2610 19° North 552 635 36,000  Level FlightAware ADS-B
Thu 01:30:17 AM 30.8830 -16.2230 19° North 551 634 36,000  Level FlightAware ADS-B
Thu 01:31:02 AM 30.9850 -16.1840 18° North 551 634 36,000  Level FlightAware ADS-B
Thu 01:31:42 AM 31.0920 -16.1390 20° North 554 638 36,000  Level FlightAware ADS-B
Thu 01:32:22 AM 31.1850 -16.0910 24° Northeast 555 639 36,000  Level FlightAware ADS-B
Thu 01:33:07 AM 31.2870 -16.0360 25° Northeast 556 640 36,000  Level FlightAware ADS-B
Thu 01:33:47 AM 31.3820 -15.9870 24° Northeast 556 640 36,000  Level FlightAware ADS-B
Thu 01:34:32 AM 31.4860 -15.9320 24° Northeast 557 641 36,000  Level FlightAware ADS-B
Thu 01:35:12 AM 31.5790 -15.8810 25° Northeast 558 642 36,000  Level FlightAware ADS-B
Thu 01:35:52 AM 31.6790 -15.8270 25° Northeast 559 643 36,000  Level FlightAware ADS-B
Thu 01:36:37 AM 31.7830 -15.7700 25° Northeast 559 643 36,000  Level FlightAware ADS-B
Thu 01:37:17 AM 31.8750 -15.7200 25° Northeast 558 642 36,000  Level FlightAware ADS-B
Thu 01:38:02 AM 31.9830 -15.6610 25° Northeast 559 643 36,000  Level FlightAware ADS-B
Thu 01:38:42 AM 32.0740 -15.6110 25° Northeast 559 643 36,000  Level FlightAware ADS-B
Thu 01:39:22 AM 32.1700 -15.5580 25° Northeast 560 644 36,000  Level FlightAware ADS-B
Thu 01:40:07 AM 32.2730 -15.5000 25° Northeast 561 646 36,000  Level FlightAware ADS-B
Thu 01:40:47 AM 32.3690 -15.4480 25° Northeast 562 647 36,000  Level FlightAware ADS-B
Thu 01:41:32 AM 32.4770 -15.3880 25° Northeast 561 646 36,000  Level FlightAware ADS-B
Thu 01:42:12 AM 32.5710 -15.3350 25° Northeast 561 646 36,000  Level FlightAware ADS-B
Thu 01:42:52 AM 32.6620 -15.2850 25° Northeast 560 644 36,000  Level FlightAware ADS-B
Thu 01:43:37 AM 32.7670 -15.2260 25° Northeast 559 643 36,000  Level FlightAware ADS-B
Thu 01:44:17 AM 32.8630 -15.1720 25° Northeast 560 644 36,000  Level FlightAware ADS-B
Thu 01:45:02 AM 32.9690 -15.1120 25° Northeast 559 643 36,000  Level FlightAware ADS-B
Thu 01:45:42 AM 33.0620 -15.0600 25° Northeast 559 643 36,000  Level FlightAware ADS-B
Thu 01:46:22 AM 33.1520 -15.0090 25° Northeast 559 643 36,000  Level FlightAware ADS-B
Thu 01:47:07 AM 33.2600 -14.9480 25° Northeast 559 643 36,000  Level FlightAware ADS-B
Thu 01:47:47 AM 33.3550 -14.8940 25° Northeast 559 643 36,000  Level FlightAware ADS-B
Thu 01:48:32 AM 33.4610 -14.8330 26° Northeast 559 643 36,000  Level FlightAware ADS-B
Thu 01:49:12 AM 33.5540 -14.7800 25° Northeast 558 642 36,000  Level FlightAware ADS-B
Thu 01:49:52 AM 33.6440 -14.7290 25° Northeast 559 643 36,000  Level FlightAware ADS-B
Thu 01:50:27 AM 33.7180 -14.6860 26° Northeast 559 643 36,000  Level FlightAware ADS-B
Thu 01:51:07 AM 33.8090 -14.6350 25° Northeast 559 643 36,000  Level FlightAware ADS-B
Thu 01:51:47 AM 33.8890 -14.5900 25° Northeast 559 643 36,000  Level FlightAware ADS-B
Thu 01:52:37 AM 33.9890 -14.5340 25° Northeast 559 643 36,000  Level FlightAware ADS-B
Thu 01:53:17 AM 34.0680 -14.4890 25° Northeast 559 643 36,000  Level FlightAware ADS-B
Thu 01:53:57 AM 34.1480 -14.4440 25° Northeast 559 643 36,000  Level FlightAware ADS-B
Thu 01:54:37 AM 34.2280 -14.3990 25° Northeast 559 643 36,000  Level FlightAware ADS-B
Thu 01:55:17 AM 34.3080 -14.3540 25° Northeast 559 643 36,000  Level FlightAware ADS-B
Thu 01:55:57 AM 34.3870 -14.3090 25° Northeast 559 643 36,000  Level FlightAware ADS-B
Thu 01:56:47 AM 34.4870 -14.2530 25° Northeast 559 643 36,000  Level FlightAware ADS-B
Thu 01:57:27 AM 34.5670 -14.2080 25° Northeast 559 643 36,000  Level FlightAware ADS-B
Thu 01:58:07 AM 34.6460 -14.1630 25° Northeast 559 643 36,000  Level FlightAware ADS-B
Thu 01:58:47 AM 34.7260 -14.1170 25° Northeast 559 643 36,000  Level FlightAware ADS-B
Thu 01:59:27 AM 34.8060 -14.0720 25° Northeast 559 643 36,000  Level FlightAware ADS-B
Thu 02:00:17 AM 34.9050 -14.0160 25° Northeast 559 643 36,000  Level FlightAware ADS-B
Thu 02:02:00 AM 35.0875 -13.8257 40° Northeast  Level Estimated
Thu 02:03:00 AM 35.1937 -13.7144 41° Northeast  Level Estimated
Thu 02:04:00 AM 35.2997 -13.6028 41° Northeast  Level Estimated
Thu 02:05:00 AM 35.4057 -13.4909 41° Northeast  Level Estimated
Thu 02:06:00 AM 35.5115 -13.3788 41° Northeast  Level Estimated
Thu 02:07:00 AM 35.6173 -13.2663 41° Northeast  Level Estimated
Thu 02:08:00 AM 35.7229 -13.1536 41° Northeast  Level Estimated
Thu 02:09:00 AM 35.8285 -13.0405 41° Northeast  Level Estimated
Thu 02:10:00 AM 35.9339 -12.9272 41° Northeast  Level Estimated
Thu 02:11:00 AM 36.0392 -12.8135 41° Northeast  Level Estimated
Thu 02:12:00 AM 36.1445 -12.6996 41° Northeast  Level Estimated
Thu 02:13:00 AM 36.2496 -12.5853 41° Northeast  Level Estimated
Thu 02:14:00 AM 36.3546 -12.4708 41° Northeast  Level Estimated
Thu 02:15:00 AM 36.4595 -12.3559 41° Northeast  Level Estimated
Thu 02:16:00 AM 36.5643 -12.2407 41° Northeast  Level Estimated
Thu 02:17:00 AM 36.6690 -12.1252 41° Northeast  Level Estimated
Thu 02:18:00 AM 36.7735 -12.0094 42° Northeast  Level Estimated
Thu 02:19:00 AM 36.8780 -11.8932 42° Northeast  Level Estimated
Thu 02:20:00 AM 36.9823 -11.7768 42° Northeast  Level Estimated
Thu 02:21:00 AM 37.0865 -11.6600 42° Northeast  Level Estimated
Thu 02:22:00 AM 37.1907 -11.5429 42° Northeast  Level Estimated
Thu 02:23:00 AM 37.2946 -11.4255 42° Northeast  Level Estimated
Thu 02:24:00 AM 37.3985 -11.3078 42° Northeast  Level Estimated
Thu 02:25:00 AM 37.5023 -11.1897 42° Northeast  Level Estimated
Thu 02:26:00 AM 37.6059 -11.0713 42° Northeast  Level Estimated
Thu 02:27:00 AM 37.7094 -10.9526 42° Northeast  Level Estimated
Thu 02:28:00 AM 37.8128 -10.8335 42° Northeast  Level Estimated
Thu 02:29:00 AM 37.9161 -10.7142 42° Northeast  Level Estimated
Thu 02:30:00 AM 38.0193 -10.5944 42° Northeast  Level Estimated
Thu 02:31:00 AM 38.1223 -10.4744 42° Northeast  Level Estimated
Thu 02:32:00 AM 38.2252 -10.3540 43° Northeast  Level Estimated
Thu 02:33:00 AM 38.3280 -10.2332 43° Northeast  Level Estimated
Thu 02:34:00 AM 38.4307 -10.1121 43° Northeast  Level Estimated
Thu 02:35:00 AM 38.5333 -9.9907 43° Northeast  Level Estimated
Thu 02:36:00 AM 38.6357 -9.8689 43° Northeast  Level Estimated
Thu 02:37:00 AM 38.7380 -9.7468 43° Northeast  Level Estimated
Thu 02:38:00 AM 38.8401 -9.6243 43° Northeast  Level Estimated
Thu 02:39:00 AM 38.9422 -9.5015 43° Northeast  Level Estimated
Thu 02:40:00 AM 39.0457 -9.3763 43° Northeast  Level Estimated
Thu 02:41:00 AM 39.1492 -9.2508 43° Northeast  Level Estimated
Thu 02:41:32 AM 40.8600 -10.1360 43° Northeast 566 651 36,000  Level FlightAware ADS-B
Thu 02:42:00 AM 39.2524 -9.1249 43° Northeast  Level Estimated
Thu 02:43:00 AM 39.3556 -8.9986 43° Northeast  Level Estimated
Thu 02:44:00 AM 39.4586 -8.8720 43° Northeast  Level Estimated
Thu 02:44:07 AM 41.2210 -9.8770 28° Northeast 565 650 36,000  Level FlightAware ADS-B
Thu 02:44:57 AM 41.3410 -9.7910 28° Northeast 566 651 36,000  Level FlightAware ADS-B
Thu 02:45:42 AM 41.4400 -9.7190 29° Northeast 564 649 36,000  Level FlightAware ADS-B
Thu 02:46:42 AM 41.5740 -9.6200 29° Northeast 553 636 36,000  Level FlightAware ADS-B
Thu 02:48:57 AM 41.8830 -9.3940 50° Northeast 559 643 36,000  Level FlightAware ADS-B
Thu 02:49:00 AM 41.7837 -9.2844 50° Northeast  Level Estimated
Thu 02:49:42 AM 41.9800 -9.3120 32° Northeast 562 647 36,000  Level FlightAware ADS-B
Thu 02:50:57 AM 42.1400 -9.1650 34° Northeast 564 649 36,000  Level FlightAware ADS-B
Thu 02:51:32 AM 42.2160 -9.0950 34° Northeast 565 650 36,000  Level FlightAware ADS-B
Thu 02:52:22 AM 42.3200 -8.9980 35° Northeast 564 649 36,000  Level FlightAware ADS-B
Thu 02:52:57 AM 42.3930 -8.9300 35° Northeast 563 648 36,000  Level FlightAware ADS-B
Thu 02:55:00 AM 42.5734 -8.6200 52° Northeast  Level Estimated
Thu 02:56:00 AM 42.6612 -8.4681 52° Northeast  Level Estimated
Thu 02:57:00 AM 42.7487 -8.3158 52° Northeast  Level Estimated
Thu 02:58:00 AM 42.8360 -8.1630 52° Northeast  Level Estimated
Thu 02:58:22 AM 43.0670 -8.2260 52° Northeast 573 659 36,000  Level FlightAware ADS-B
Thu 02:59:07 AM 43.1510 -8.1050 46° Northeast 572 658 36,000  Level FlightAware ADS-B
Thu 02:59:47 AM 43.2260 -7.9950 47° Northeast 573 659 36,000  Level FlightAware ADS-B
Thu 03:00:27 AM 43.2910 -7.8990 47° Northeast 572 658 36,000  Level FlightAware ADS-B
Thu 03:01:12 AM 43.3800 -7.7710 46° Northeast 575 662 36,000  Level FlightAware ADS-B
Thu 03:01:52 AM 43.4510 -7.6670 47° Northeast 575 662 36,000  Level FlightAware ADS-B
Thu 03:02:37 AM 43.5390 -7.5370 47° Northeast 573 659 36,000  Level FlightAware ADS-B
Thu 03:03:17 AM 43.6120 -7.4300 47° Northeast 573 659 36,000  Level FlightAware ADS-B
Thu 03:04:02 AM 43.6910 -7.3120 47° Northeast 574 661 36,000  Level FlightAware ADS-B
Thu 03:04:42 AM 43.7640 -7.2030 47° Northeast 573 659 36,000  Level FlightAware ADS-B
Thu 03:05:22 AM 43.8360 -7.0960 47° Northeast 574 661 36,000  Level FlightAware ADS-B
Thu 03:06:07 AM 43.9190 -6.9720 47° Northeast 574 661 36,000  Level FlightAware ADS-B
Thu 03:06:47 AM 43.9890 -6.8660 47° Northeast 574 661 36,000  Level FlightAware ADS-B
Thu 03:07:27 AM 44.0620 -6.7550 48° Northeast 574 661 36,000  Level FlightAware ADS-B
Thu 03:08:12 AM 44.1420 -6.6340 47° Northeast 574 661 36,000  Level FlightAware ADS-B
Thu 03:08:52 AM 44.2090 -6.5320 47° Northeast 574 661 36,000  Level FlightAware ADS-B
Thu 03:09:27 AM 44.2730 -6.4350 47° Northeast 575 662 36,000  Level FlightAware ADS-B
Thu 03:10:17 AM 44.3610 -6.3000 48° Northeast 575 662 36,000  Level FlightAware ADS-B
Thu 03:11:02 AM 44.4410 -6.1760 48° Northeast 574 661 36,000  Level FlightAware ADS-B
Thu 03:11:37 AM 44.5000 -6.0850 48° Northeast 575 662 36,000  Level FlightAware ADS-B
Thu 03:12:17 AM 44.5710 -5.9730 48° Northeast 574 661 36,000  Level FlightAware ADS-B
Thu 03:13:07 AM 44.6470 -5.8550 48° Northeast 574 661 36,000  Level FlightAware ADS-B
Thu 03:13:47 AM 44.7070 -5.7610 48° Northeast 574 661 36,000  Level FlightAware ADS-B
Thu 03:14:17 AM 44.7520 -5.6070 68° East 36,000  Level FlightAware ADS-B
Thu 03:15:07 AM 44.8200 -5.4580 57° Northeast 579 666 36,000  Level FlightAware ADS-B
Thu 03:15:47 AM 44.8700 -5.3500 57° Northeast 579 666 36,000  Level FlightAware ADS-B
Thu 03:16:37 AM 44.9320 -5.2150 57° Northeast 579 666 36,000  Level FlightAware ADS-B
Thu 03:17:17 AM 44.9810 -5.1070 57° Northeast 579 666 36,000  Level FlightAware ADS-B
Thu 03:18:02 AM 45.1220 -4.9420 40° Northeast 569 655 36,000  Level FlightAware ADS-B
Thu 03:18:32 AM 45.1710 -4.8610 49° Northeast 569 655 36,000  Level FlightAware ADS-B
Thu 03:19:22 AM 45.2570 -4.7160 50° Northeast 568 654 36,000  Level FlightAware ADS-B
Thu 03:20:07 AM 45.3370 -4.5790 50° Northeast 568 654 36,000  Level FlightAware ADS-B
Thu 03:20:47 AM 45.4050 -4.4650 50° Northeast 568 654 36,000  Level FlightAware ADS-B
Thu 03:21:27 AM 45.4730 -4.3490 50° Northeast 568 654 36,000  Level FlightAware ADS-B
Thu 03:22:12 AM 45.5430 -4.2280 50° Northeast 568 654 36,000  Level FlightAware ADS-B
Thu 03:22:52 AM 45.6100 -4.1130 50° Northeast 569 655 36,000  Level FlightAware ADS-B
Thu 03:23:37 AM 45.6890 -3.9760 50° Northeast 568 654 36,000  Level FlightAware ADS-B
Thu 03:24:12 AM 45.7440 -3.8800 51° Northeast 567 652 36,000  Level FlightAware ADS-B
Thu 03:24:57 AM 45.8220 -3.7450 50° Northeast 566 651 36,000  Level FlightAware ADS-B
Thu 03:25:42 AM 45.8950 -3.6150 51° Northeast 565 650 36,000  Level FlightAware ADS-B
Thu 03:26:22 AM 45.9610 -3.5000 50° Northeast 565 650 36,000  Level FlightAware ADS-B
Thu 03:27:07 AM 46.0350 -3.3690 51° Northeast 564 649 36,000  Level FlightAware ADS-B
Thu 03:27:47 AM 46.1030 -3.2480 51° Northeast 563 648 36,000  Level FlightAware ADS-B
Thu 03:28:27 AM 46.1680 -3.1320 51° Northeast 563 648 36,000  Level FlightAware ADS-B
Thu 03:29:12 AM 46.2370 -3.0080 51° Northeast 562 647 36,000  Level FlightAware ADS-B
Thu 03:29:52 AM 46.3010 -2.8930 51° Northeast 563 648 36,000  Level FlightAware ADS-B
Thu 03:30:37 AM 46.3730 -2.7630 51° Northeast 563 648 36,000  Level FlightAware ADS-B
Thu 03:31:17 AM 46.4430 -2.6350 52° Northeast 563 648 36,000  Level FlightAware ADS-B
Thu 03:31:57 AM 46.5090 -2.5160 51° Northeast 563 648 36,000  Level FlightAware ADS-B
Thu 03:32:42 AM 46.5800 -2.3850 52° Northeast 563 648 36,000  Level FlightAware ADS-B
Thu 03:33:22 AM 46.6420 -2.2700 52° Northeast 563 648 36,000  Level FlightAware ADS-B
Thu 03:34:07 AM 46.7170 -2.1320 52° Northeast 562 647 36,000  Level FlightAware ADS-B
Thu 03:34:47 AM 46.7780 -2.0140 53° Northeast 563 648 36,000  Level FlightAware ADS-B
Thu 03:35:32 AM 46.8500 -1.8720 53° Northeast 562 647 36,000  Level FlightAware ADS-B
Thu 03:36:12 AM 46.9120 -1.7520 53° Northeast 563 648 36,000  Level FlightAware ADS-B
Thu 03:36:52 AM 46.9750 -1.6290 53° Northeast 562 647 36,000  Level FlightAware ADS-B
Thu 03:37:37 AM 47.0420 -1.4980 53° Northeast 561 646 36,000  Level FlightAware ADS-B
Thu 03:38:17 AM 47.1040 -1.3740 54° Northeast 559 643 36,000  Level FlightAware ADS-B
Thu 03:39:02 AM 47.1750 -1.2330 53° Northeast 559 643 36,000  Level FlightAware ADS-B
Thu 03:39:42 AM 47.2370 -1.1110 53° Northeast 558 642 36,000  Level FlightAware ADS-B
Thu 03:40:22 AM 47.2970 -0.9910 54° Northeast 548 631 36,000  Level FlightAware ADS-B
Thu 03:41:07 AM 47.3630 -0.8580 54° Northeast 549 632 36,000  Level FlightAware ADS-B
Thu 03:41:47 AM 47.4230 -0.7370 54° Northeast 549 632 36,000  Level FlightAware ADS-B
Thu 03:42:27 AM 47.4820 -0.6160 54° Northeast 549 632 36,000  Level FlightAware ADS-B
Thu 03:43:12 AM 47.5510 -0.4750 54° Northeast 550 633 36,000  Level FlightAware ADS-B
Thu 03:43:52 AM 47.6110 -0.3520 54° Northeast 551 634 36,000  Level FlightAware ADS-B
Thu 03:44:37 AM 47.6760 -0.2200 54° Northeast 552 635 36,000  Level FlightAware ADS-B
Thu 03:45:17 AM 47.7340 -0.0980 55° Northeast 553 636 36,000  Level FlightAware ADS-B
Thu 03:46:02 AM 47.8030 0.0460 54° Northeast 553 636 36,000  Level FlightAware ADS-B
Thu 03:46:25 AM 47.8389 0.1198 54° Northeast 554 638 36,000  Level FlightAware ADS-B
Thu 03:46:55 AM 47.8843 0.2147 54° Northeast 554 638 36,000  Level FlightAware ADS-B
Thu 03:47:42 AM 47.9529 0.3588 55° Northeast 554 638 36,000  Level FlightAware ADS-B
Thu 03:48:15 AM 48.0011 0.4609 55° Northeast 553 636 36,000  Level FlightAware ADS-B
Thu 03:48:48 AM 48.0495 0.5637 55° Northeast 553 636 36,000  Level FlightAware ADS-B
Thu 03:49:18 AM 48.0937 0.6578 55° Northeast 552 635 36,000  Level FlightAware ADS-B
Thu 03:49:50 AM 48.1410 0.7588 55° Northeast 552 635 36,000  Level FlightAware ADS-B
Thu 03:50:21 AM 48.1853 0.8536 55° Northeast 550 633 36,000  Level FlightAware ADS-B
Thu 03:50:51 AM 48.2298 0.9491 55° Northeast 550 633 36,000  Level FlightAware ADS-B
Thu 03:51:27 AM 48.2810 1.0597 55° Northeast 550 633 36,000  Level FlightAware ADS-B
Thu 03:51:58 AM 48.3261 1.1574 55° Northeast 551 634 36,000 -1,837 Level FlightAware ADS-B
Thu 03:52:16 AM 48.3539 1.2175 55° Northeast 476 548 34,500  Descending FlightAware UK
Thu 03:52:29 AM 48.3710 1.2553 55° Northeast 550 633 36,000  Climbing FlightAware ADS-B
Thu 03:52:46 AM 48.3969 1.3112 55° Northeast 476 548 34,500  Descending FlightAware UK
Thu 03:53:04 AM 48.4220 1.3665 55° Northeast 549 632 36,000 1,837 Climbing FlightAware ADS-B
Thu 03:53:35 AM 48.4661 1.4634 56° Northeast 550 633 36,000 -1,875 Level FlightAware ADS-B
Thu 03:53:52 AM 48.4922 1.5204 56° Northeast 476 548 34,500  Descending FlightAware UK
Thu 03:54:10 AM 48.5158 1.5725 56° Northeast 550 633 36,000 1,731 Climbing FlightAware ADS-B
Thu 03:54:44 AM 48.5644 1.6797 56° Northeast 549 632 36,000  Level FlightAware ADS-B
Thu 03:55:14 AM 48.6073 1.7751 56° Northeast 547 629 36,000 -2,000 Level FlightAware ADS-B
Thu 03:55:29 AM 48.6298 1.8242 56° Northeast 480 552 34,500  Descending FlightAware UK
Thu 03:55:45 AM 48.6507 1.8716 56° Northeast 546 628 36,000 1,957 Climbing FlightAware ADS-B
Thu 03:56:15 AM 48.6903 1.9708 59° Northeast 547 629 36,000  Level FlightAware ADS-B
Thu 03:56:31 AM 48.7084 2.0272 64° Northeast 547 629 36,000  Level FlightAware ADS-B
Thu 03:56:53 AM 48.7279 2.1027 69° East 548 631 36,000 -2,250 Level FlightAware ADS-B
Thu 03:57:11 AM 48.7423 2.1710 69° East 478 550 34,500  Descending FlightAware UK
Thu 03:57:23 AM 48.7500 2.2140 69° East 547 629 36,000 2,093 Climbing FlightAware ADS-B
Thu 03:57:54 AM 48.7719 2.3292 74° East 546 628 36,000  Level FlightAware ADS-B
Thu 03:58:28 AM 48.7947 2.4519 74° East 546 628 36,000  Level FlightAware ADS-B
Thu 03:58:58 AM 48.8154 2.5645 74° East 546 628 36,000  Level FlightAware ADS-B
Thu 03:59:29 AM 48.8357 2.6763 75° East 546 628 36,000  Level FlightAware ADS-B
Thu 04:00:03 AM 48.8585 2.8013 74° East 546 628 36,000  Level FlightAware ADS-B
Thu 04:00:34 AM 48.8798 2.9169 74° East 546 628 36,000  Level FlightAware ADS-B
Thu 04:01:06 AM 48.9010 3.0326 74° East 546 628 36,000  Level FlightAware ADS-B
Thu 04:01:38 AM 48.9228 3.1520 74° East 546 628 36,000  Level FlightAware ADS-B
Thu 04:02:08 AM 48.9429 3.2626 74° East 546 628 36,000  Level FlightAware ADS-B
Thu 04:02:40 AM 48.9640 3.3806 75° East 546 628 36,000  Level FlightAware ADS-B
Thu 04:03:10 AM 48.9841 3.4928 75° East 545 627 36,000  Level FlightAware ADS-B
Thu 04:04:03 AM 49.0188 3.6884 75° East 545 627 36,000  Level FlightAware ADS-B
Thu 04:04:33 AM 49.0381 3.7993 75° East 545 627 36,000  Level FlightAware ADS-B
Thu 04:05:29 AM 49.0735 4.0036 75° East 545 627 36,000  Level FlightAware ADS-B
Thu 04:05:59 AM 49.0930 4.1169 75° East 545 627 36,000  Level FlightAware ADS-B
Thu 04:06:32 AM 49.1131 4.2365 76° East 545 627 36,000  Level FlightAware ADS-B
Thu 04:07:02 AM 49.1354 4.3501 73° East 544 626 36,000  Level FlightAware ADS-B
Thu 04:07:38 AM 49.1707 4.4765 67° East 542 624 36,000  Level FlightAware ADS-B
Thu 04:08:38 AM 49.2298 4.6855 67° East 542 624 36,000  Level FlightAware ADS-B
Thu 04:09:47 AM 49.2930 4.9210 68° East 538 619 36,000  Level FlightAware ADS-B
Thu 04:10:27 AM 49.3290 5.0580 68° East 541 623 36,000  Level FlightAware ADS-B
Thu 04:11:07 AM 49.3670 5.2070 69° East 540 621 36,000 -71 Level FlightAware ADS-B
Thu 04:11:52 AM 49.4100 5.3680 68° East 541 623 35,900 -776 Descending FlightAware ADS-B
Thu 04:12:32 AM 49.4590 5.4990 60° Northeast 547 629 34,900 -1,553 Descending FlightAware ADS-B
Thu 04:13:17 AM 49.5330 5.6330 50° Northeast 544 626 33,700 -1,553 Descending FlightAware ADS-B
Thu 04:13:57 AM 49.6000 5.7450 47° Northeast 548 631 32,700 -1,553 Descending FlightAware ADS-B
Thu 04:14:42 AM 49.6780 5.8760 47° Northeast 557 641 31,500 -1,624 Descending FlightAware ADS-B
Thu 04:15:22 AM 49.7490 5.9970 48° Northeast 567 652 30,400 -1,650 Descending FlightAware ADS-B
Thu 04:16:02 AM 49.8170 6.1120 47° Northeast 566 651 29,300 -1,835 Descending FlightAware ADS-B
Thu 04:16:47 AM 49.8970 6.2510 48° Northeast 559 643 27,800 -2,047 Descending FlightAware ADS-B
Thu 04:17:27 AM 49.9660 6.3690 48° Northeast 536 617 26,400 -2,025 Descending FlightAware ADS-B
Thu 04:18:07 AM 50.0290 6.4780 48° Northeast 517 595 25,100 -1,835 Descending FlightAware ADS-B
Thu 04:18:52 AM 50.0890 6.5940 51° Northeast 499 574 23,800 -2,047 Descending FlightAware ADS-B
Thu 04:19:32 AM 50.1230 6.7440 70° East 481 554 22,200 -2,018 Descending FlightAware ADS-B
Thu 04:20:42 AM 50.1240 6.9670 90° East 463 533 20,100 -1,878 Descending FlightAware ADS-B
Thu 04:21:27 AM 50.1220 7.1110 91° East 450 518 18,600 -1,906 Descending FlightAware ADS-B
Thu 04:22:07 AM 50.1200 7.2320 91° East 438 504 17,400 -1,976 Descending FlightAware ADS-B
Thu 04:22:52 AM 50.1170 7.3760 92° East 426 490 15,800 -2,118 Descending FlightAware ADS-B
Thu 04:23:32 AM 50.1150 7.5060 91° East 416 479 14,400 -2,025 Descending FlightAware ADS-B
Thu 04:24:12 AM 50.1130 7.6270 91° East 407 468 13,100 -988 Descending FlightAware ADS-B
Thu 04:24:57 AM 50.0990 7.7470 100° East 378 435 13,000 -71 Descending FlightAware ADS-B
Thu 04:25:37 AM 50.0780 7.8530 107° East 371 427 13,000  Level FlightAware ADS-B
Thu 04:26:22 AM 50.0550 7.9680 107° East 373 429 13,000  Level FlightAware ADS-B
Thu 04:27:02 AM 50.0350 8.0680 107° East 366 421 13,000 -225 Level FlightAware ADS-B
Thu 04:27:42 AM 50.0150 8.1700 107° East 371 427 12,700 -825 Descending FlightAware ADS-B
Thu 04:28:22 AM 49.9940 8.2700 108° East 360 414 11,900 -988 Descending FlightAware ADS-B
Thu 04:29:07 AM 49.9720 8.3790 107° East 336 387 11,300 -635 Descending FlightAware ADS-B
Thu 04:29:47 AM 49.9540 8.4670 108° East 304 350 11,000 -189 Descending FlightAware ADS-B
Thu 04:30:42 AM 49.9470 8.5710 96° East 290 334 11,000  Level FlightAware ADS-B
Thu 04:31:27 AM 49.9700 8.6690 70° East 291 335 11,000 -467 Level FlightAware ADS-B
Thu 04:32:12 AM 49.9870 8.7580 73° East 288 331 10,300 -960 Descending FlightAware ADS-B
Thu 04:32:42 AM 49.9980 8.8160 74° East 282 325 9,800 -982 Descending FlightAware ADS-B
Thu 04:33:07 AM 50.0070 8.8640 74° East 282 325 9,400 -873 Descending FlightAware ADS-B
Thu 04:33:37 AM 50.0180 8.9220 74° East 281 323 9,000 -873 Descending FlightAware ADS-B
Thu 04:34:02 AM 50.0280 8.9740 73° East 282 325 8,600 -1,091 Descending FlightAware ADS-B
Thu 04:34:32 AM 50.0360 9.0310 78° East 280 322 8,000 -1,091 Descending FlightAware ADS-B
Thu 04:34:57 AM 50.0420 9.0760 78° East 276 318 7,600 -1,050 Descending FlightAware ADS-B
Thu 04:35:12 AM 50.0460 9.1090 79° East 273 314 7,300 -1,200 Descending FlightAware ADS-B
Thu 04:35:42 AM 50.0530 9.1650 79° East 272 313 6,700 -1,100 Descending FlightAware ADS-B
Thu 04:36:12 AM 50.0610 9.2190 77° East 266 306 6,200 -1,350 Descending FlightAware ADS-B
Thu 04:36:22 AM 50.0690 9.2390 58° Northeast 271 312 5,800 -2,160 Descending FlightAware ADS-B
Thu 04:36:37 AM 50.0860 9.2560 33° Northeast 279 321 5,300 -1,400 Descending FlightAware ADS-B
Thu 04:36:52 AM 50.1020 9.2650 20° North 280 322 5,100 -933 Descending FlightAware ADS-B
Thu 04:37:22 AM 50.1380 9.2540 349° North 275 316 4,600 -1,050 Descending FlightAware ADS-B
Thu 04:37:32 AM 50.1480 9.2390 316° Northwest 266 306 4,400 -1,200 Descending FlightAware ADS-B
Thu 04:37:47 AM 50.1560 9.2110 294° West 258 297 4,100 -533 Descending FlightAware ADS-B
Thu 04:38:17 AM 50.1640 9.1580 283° West 254 292 4,000 -133 Descending FlightAware ADS-B
Thu 04:38:32 AM 50.1670 9.1330 281° West 250 288 4,000  Level FlightAware ADS-B
Thu 04:38:42 AM 50.1650 9.1170 259° West 246 283 4,000  Level FlightAware ADS-B
Thu 04:39:12 AM 50.1530 9.0650 250° West 249 287 4,000  Level FlightAware ADS-B
Thu 04:39:42 AM 50.1410 9.0140 250° West 252 290 4,000  Level FlightAware ADS-B
Thu 04:40:07 AM 50.1310 8.9700 250° West 245 282 4,000  Level FlightAware ADS-B
Thu 04:40:37 AM 50.1200 8.9260 249° West 224 258 4,000  Level FlightAware ADS-B
Thu 04:41:02 AM 50.1110 8.8870 250° West 204 235 4,000 -109 Level FlightAware ADS-B
Thu 04:41:32 AM 50.1020 8.8470 251° West 201 231 3,900 -700 Descending FlightAware ADS-B
Thu 04:42:02 AM 50.0920 8.8070 249° West 195 224 3,300 -1,091 Descending FlightAware ADS-B
Thu 04:42:27 AM 50.0850 8.7760 251° West 188 216 2,900 -982 Descending FlightAware ADS-B
Thu 04:42:57 AM 50.0760 8.7400 249° West 173 199 2,400 -982 Descending FlightAware ADS-B
Thu 04:43:22 AM 50.0690 8.7100 250° West 160 184 2,000 -764 Descending FlightAware ADS-B
Thu 04:43:52 AM 50.0620 8.6810 249° West 149 171 1,700 -800 Descending FlightAware ADS-B
Thu 04:44:22 AM 50.0550 8.6500 251° West 147 169 1,200 -873 Descending FlightAware ADS-B
Thu 04:44:47 AM 50.0490 8.6240 250° West 146 168 900 -764 Descending FlightAware ADS-B
Thu 04:45:17 AM 50.0420 8.5950 249° West 149 171 500 -800 Descending FlightAware ADS-B

Login

Don't have an account? Register now (free) for customized features, flight alerts, and more!